New Ross, Canada
Current Conditions -  °F | °C
As of 4:25 PM on Wednesday 28 Jan 2015 (Local Time) from CYZX Reporting Station
Moderate Snow Moderate Snow  
Wind Chill:   Ceiling: 1900
Heat Index: 21°   Visibility: 0.5mi
Dew Point: 19°   Wind: 12mph
Humidity: 93%   Direction: 20°NNE
Pressure: 29.73"   Gusts: 17mph
Location:  44.73°N, 64.45°W
Report Text: CYZX 282025Z 02010G15KT 1/2SM SN BLSN SCT007 OVC019 M06/M07 A2973 RMK SF3SC5 WNDY HILL 36018G25KT SLP071
Loading
Personal Weather Stations






























Interactive Weather Map New forecast layout! Learn more

10-Day Weather Forecast

Advertisements
Track Severe Weather on mobile